Alpujarra Granadina, Spain
Current Conditions -  °F | °C
As of 2:30 PM on Monday 24 Nov 2014 (Local Time) from LEGR Reporting Station
Scattered Clouds Scattered Clouds  
Wind Chill: 68°   Ceiling: Unl
Heat Index: 68°   Visibility: 6mi
Dew Point: 52°   Wind: 5mph
Humidity: 56%   Direction: 270°W
Pressure: 29.97"   Gusts: NA
Location:  36.93°N, 3.2°W
Report Text: LEGR 241330Z 27004KT 240V320 9999 FEW050 SCT095 20/11 Q1015
Loading
Personal Weather Stations






























Interactive Weather Map New forecast layout! Learn more

10-Day Weather Forecast

Advertisements
Track Severe Weather on mobile